sensor_id;sensor_type;location;lat;lon;timestamp;pressure;altitude;pressure_sealevel;temperature;humidity
23679;BME280;12016;51.668;6.874;2022-12-18T00:02:22;102731.72;;;-4.85;100.00
23679;BME280;12016;51.668;6.874;2022-12-18T00:08:24;102741.22;;;-4.83;100.00
23679;BME280;12016;51.668;6.874;2022-12-18T00:14:25;102736.19;;;-4.79;100.00
23679;BME280;12016;51.668;6.874;2022-12-18T00:20:27;102728.22;;;-5.04;100.00
23679;BME280;12016;51.668;6.874;2022-12-18T00:26:32;102717.09;;;-4.96;100.00
23679;BME280;12016;51.668;6.874;2022-12-18T00:32:35;102715.00;;;-4.94;100.00
23679;BME280;12016;51.668;6.874;2022-12-18T00:38:37;102728.03;;;-4.91;100.00
23679;BME280;12016;51.668;6.874;2022-12-18T00:44:39;102728.22;;;-5.04;100.00
23679;BME280;12016;51.668;6.874;2022-12-18T00:50:41;102720.72;;;-5.02;100.00
23679;BME280;12016;51.668;6.874;2022-12-18T00:56:43;102730.69;;;-5.02;100.00
23679;BME280;12016;51.668;6.874;2022-12-18T01:02:49;102727.78;;;-5.01;100.00
23679;BME280;12016;51.668;6.874;2022-12-18T01:08:51;102729.47;;;-5.18;100.00
23679;BME280;12016;51.668;6.874;2022-12-18T01:14:53;102713.88;;;-5.16;100.00
23679;BME280;12016;51.668;6.874;2022-12-18T01:20:55;102727.50;;;-5.11;100.00
23679;BME280;12016;51.668;6.874;2022-12-18T01:26:57;102718.06;;;-5.20;100.00
23679;BME280;12016;51.668;6.874;2022-12-18T01:32:59;102725.88;;;-5.48;100.00
23679;BME280;12016;51.668;6.874;2022-12-18T01:39:04;102721.44;;;-5.24;100.00
23679;BME280;12016;51.668;6.874;2022-12-18T01:45:08;102715.97;;;-5.18;100.00
23679;BME280;12016;51.668;6.874;2022-12-18T01:51:23;102716.88;;;-5.24;100.00
23679;BME280;12016;51.668;6.874;2022-12-18T01:57:27;102712.19;;;-5.17;100.00
23679;BME280;12016;51.668;6.874;2022-12-18T02:03:29;102704.78;;;-5.21;100.00
23679;BME280;12016;51.668;6.874;2022-12-18T02:22:20;102718.94;;;-5.08;100.00
23679;BME280;12016;51.668;6.874;2022-12-18T02:28:29;102712.34;;;-5.12;100.00
23679;BME280;12016;51.668;6.874;2022-12-18T02:34:38;102705.31;;;-5.13;100.00
23679;BME280;12016;51.668;6.874;2022-12-18T02:40:45;102711.78;;;-5.14;100.00
23679;BME280;12016;51.668;6.874;2022-12-18T02:46:53;102715.03;;;-5.12;100.00
23679;BME280;12016;51.668;6.874;2022-12-18T02:53:17;102694.09;;;-5.28;100.00
23679;BME280;12016;51.668;6.874;2022-12-18T02:59:32;102695.53;;;-5.25;100.00
23679;BME280;12016;51.668;6.874;2022-12-18T03:06:00;102707.75;;;-5.41;100.00
23679;BME280;12016;51.668;6.874;2022-12-18T03:12:12;102706.34;;;-5.43;100.00
23679;BME280;12016;51.668;6.874;2022-12-18T03:18:34;102701.38;;;-5.46;100.00
23679;BME280;12016;51.668;6.874;2022-12-18T03:24:39;102688.88;;;-5.59;100.00
23679;BME280;12016;51.668;6.874;2022-12-18T03:30:43;102698.63;;;-5.58;100.00
23679;BME280;12016;51.668;6.874;2022-12-18T03:36:46;102698.72;;;-5.65;100.00
23679;BME280;12016;51.668;6.874;2022-12-18T03:42:52;102692.78;;;-5.73;100.00
23679;BME280;12016;51.668;6.874;2022-12-18T03:49:10;102685.94;;;-5.76;100.00
23679;BME280;12016;51.668;6.874;2022-12-18T03:55:15;102680.84;;;-5.66;100.00
23679;BME280;12016;51.668;6.874;2022-12-18T04:01:25;102674.06;;;-5.68;100.00
23679;BME280;12016;51.668;6.874;2022-12-18T04:07:31;102677.78;;;-5.69;100.00
23679;BME280;12016;51.668;6.874;2022-12-18T04:13:36;102670.16;;;-5.72;100.00
23679;BME280;12016;51.668;6.874;2022-12-18T04:19:42;102682.06;;;-5.80;100.00
23679;BME280;12016;51.668;6.874;2022-12-18T04:25:46;102675.25;;;-6.00;100.00
23679;BME280;12016;51.668;6.874;2022-12-18T04:31:56;102664.19;;;-5.92;100.00
23679;BME280;12016;51.668;6.874;2022-12-18T04:38:00;102679.31;;;-5.91;100.00
23679;BME280;12016;51.668;6.874;2022-12-18T04:44:01;102670.78;;;-5.88;100.00
23679;BME280;12016;51.668;6.874;2022-12-18T04:50:04;102658.78;;;-5.92;100.00
23679;BME280;12016;51.668;6.874;2022-12-18T04:56:08;102653.38;;;-5.92;100.00
23679;BME280;12016;51.668;6.874;2022-12-18T05:02:10;102645.91;;;-5.90;100.00
23679;BME280;12016;51.668;6.874;2022-12-18T05:08:12;102656.47;;;-5.89;100.00
23679;BME280;12016;51.668;6.874;2022-12-18T05:14:14;102644.50;;;-5.93;100.00
23679;BME280;12016;51.668;6.874;2022-12-18T05:20:16;102639.91;;;-5.92;100.00
23679;BME280;12016;51.668;6.874;2022-12-18T05:26:19;102656.25;;;-5.87;100.00
23679;BME280;12016;51.668;6.874;2022-12-18T05:32:21;102654.00;;;-5.90;100.00
23679;BME280;12016;51.668;6.874;2022-12-18T05:38:24;102647.56;;;-5.89;100.00
23679;BME280;12016;51.668;6.874;2022-12-18T05:44:26;102658.78;;;-5.92;100.00
23679;BME280;12016;51.668;6.874;2022-12-18T05:50:28;102677.66;;;-5.92;100.00
23679;BME280;12016;51.668;6.874;2022-12-18T05:56:35;102675.41;;;-5.95;100.00
23679;BME280;12016;51.668;6.874;2022-12-18T06:02:36;102681.41;;;-5.93;100.00
23679;BME280;12016;51.668;6.874;2022-12-18T06:08:38;102680.19;;;-6.15;100.00
23679;BME280;12016;51.668;6.874;2022-12-18T06:14:43;102704.63;;;-6.10;100.00
23679;BME280;12016;51.668;6.874;2022-12-18T06:20:45;102709.94;;;-6.04;100.00
23679;BME280;12016;51.668;6.874;2022-12-18T06:26:46;102708.72;;;-6.08;100.00
23679;BME280;12016;51.668;6.874;2022-12-18T06:32:49;102703.78;;;-6.11;100.00
23679;BME280;12016;51.668;6.874;2022-12-18T06:38:57;102703.06;;;-6.24;100.00
23679;BME280;12016;51.668;6.874;2022-12-18T06:45:03;102683.75;;;-6.21;100.00
23679;BME280;12016;51.668;6.874;2022-12-18T06:51:07;102675.09;;;-6.23;100.00
23679;BME280;12016;51.668;6.874;2022-12-18T06:57:10;102668.59;;;-6.16;100.00
23679;BME280;12016;51.668;6.874;2022-12-18T07:03:11;102652.41;;;-6.16;100.00
23679;BME280;12016;51.668;6.874;2022-12-18T07:09:13;102652.72;;;-6.24;100.00
23679;BME280;12016;51.668;6.874;2022-12-18T07:15:15;102655.03;;;-6.27;100.00
23679;BME280;12016;51.668;6.874;2022-12-18T07:21:18;102652.19;;;-6.14;100.00
23679;BME280;12016;51.668;6.874;2022-12-18T07:27:21;102647.72;;;-6.02;100.00
23679;BME280;12016;51.668;6.874;2022-12-18T07:33:23;102650.56;;;-5.97;100.00
23679;BME280;12016;51.668;6.874;2022-12-18T07:39:25;102646.28;;;-5.87;100.00
23679;BME280;12016;51.668;6.874;2022-12-18T07:45:27;102653.81;;;-5.77;100.00
23679;BME280;12016;51.668;6.874;2022-12-18T07:51:28;102641.09;;;-5.70;100.00
23679;BME280;12016;51.668;6.874;2022-12-18T07:57:30;102654.56;;;-5.52;100.00
23679;BME280;12016;51.668;6.874;2022-12-18T08:03:50;102660.38;;;-5.37;100.00
23679;BME280;12016;51.668;6.874;2022-12-18T08:09:51;102652.78;;;-5.28;100.00
23679;BME280;12016;51.668;6.874;2022-12-18T08:16:04;102652.69;;;-5.22;100.00
23679;BME280;12016;51.668;6.874;2022-12-18T08:22:07;102621.75;;;-5.08;100.00
23679;BME280;12016;51.668;6.874;2022-12-18T08:28:09;102616.16;;;-4.95;100.00
23679;BME280;12016;51.668;6.874;2022-12-18T08:34:11;102599.41;;;-4.74;100.00
23679;BME280;12016;51.668;6.874;2022-12-18T08:40:13;102586.25;;;-4.59;100.00
23679;BME280;12016;51.668;6.874;2022-12-18T08:46:16;102597.75;;;-4.40;100.00
23679;BME280;12016;51.668;6.874;2022-12-18T08:52:18;102604.94;;;-4.23;100.00
23679;BME280;12016;51.668;6.874;2022-12-18T08:58:19;102594.53;;;-4.02;100.00
23679;BME280;12016;51.668;6.874;2022-12-18T09:04:22;102587.78;;;-3.77;100.00
23679;BME280;12016;51.668;6.874;2022-12-18T09:10:24;102587.94;;;-3.55;100.00
23679;BME280;12016;51.668;6.874;2022-12-18T09:16:27;102569.97;;;-3.33;100.00
23679;BME280;12016;51.668;6.874;2022-12-18T09:22:32;102583.44;;;-3.22;100.00
23679;BME280;12016;51.668;6.874;2022-12-18T09:28:34;102571.47;;;-3.09;100.00
23679;BME280;12016;51.668;6.874;2022-12-18T09:34:36;102574.03;;;-2.86;100.00
23679;BME280;12016;51.668;6.874;2022-12-18T09:40:44;102571.31;;;-2.53;100.00
23679;BME280;12016;51.668;6.874;2022-12-18T09:47:18;102572.75;;;-2.29;100.00
23679;BME280;12016;51.668;6.874;2022-12-18T09:53:24;102589.53;;;-1.89;100.00
23679;BME280;12016;51.668;6.874;2022-12-18T09:59:34;102567.28;;;-1.43;100.00
23679;BME280;12016;51.668;6.874;2022-12-18T10:12:50;102528.03;;;-0.15;100.00
23679;BME280;12016;51.668;6.874;2022-12-18T10:25:19;102514.47;;;-0.05;100.00
23679;BME280;12016;51.668;6.874;2022-12-18T10:31:24;102495.91;;;-0.13;100.00
23679;BME280;12016;51.668;6.874;2022-12-18T10:37:28;102494.41;;;0.16;100.00
23679;BME280;12016;51.668;6.874;2022-12-18T10:43:35;102502.59;;;0.31;100.00
23679;BME280;12016;51.668;6.874;2022-12-18T10:49:47;102477.31;;;0.56;100.00
23679;BME280;12016;51.668;6.874;2022-12-18T10:55:53;102468.06;;;0.67;100.00
23679;BME280;12016;51.668;6.874;2022-12-18T11:01:57;102447.91;;;0.73;100.00
23679;BME280;12016;51.668;6.874;2022-12-18T11:08:00;102439.44;;;0.79;100.00
23679;BME280;12016;51.668;6.874;2022-12-18T11:14:05;102449.78;;;0.77;100.00
23679;BME280;12016;51.668;6.874;2022-12-18T11:20:33;102432.38;;;0.68;100.00
23679;BME280;12016;51.668;6.874;2022-12-18T11:26:35;102419.28;;;0.60;100.00
23679;BME280;12016;51.668;6.874;2022-12-18T11:32:39;102400.50;;;0.54;100.00
23679;BME280;12016;51.668;6.874;2022-12-18T11:38:44;102389.31;;;0.55;100.00
23679;BME280;12016;51.668;6.874;2022-12-18T11:51:23;102382.22;;;0.54;100.00
23679;BME280;12016;51.668;6.874;2022-12-18T11:57:40;102386.31;;;0.67;100.00
23679;BME280;12016;51.668;6.874;2022-12-18T12:04:00;102367.47;;;0.70;100.00
23679;BME280;12016;51.668;6.874;2022-12-18T12:16:34;102384.38;;;0.82;100.00
23679;BME280;12016;51.668;6.874;2022-12-18T12:22:53;102374.31;;;0.83;100.00
23679;BME280;12016;51.668;6.874;2022-12-18T12:35:47;102354.38;;;0.87;100.00
23679;BME280;12016;51.668;6.874;2022-12-18T12:41:54;102339.63;;;0.93;100.00
23679;BME280;12016;51.668;6.874;2022-12-18T12:48:52;102340.75;;;0.92;100.00
23679;BME280;12016;51.668;6.874;2022-12-18T12:54:56;102346.19;;;1.02;100.00
23679;BME280;12016;51.668;6.874;2022-12-18T13:01:08;102336.34;;;0.96;100.00
23679;BME280;12016;51.668;6.874;2022-12-18T13:07:13;102324.38;;;0.92;100.00
23679;BME280;12016;51.668;6.874;2022-12-18T13:13:16;102329.84;;;0.82;100.00
23679;BME280;12016;51.668;6.874;2022-12-18T13:19:23;102329.59;;;0.79;100.00
23679;BME280;12016;51.668;6.874;2022-12-18T13:25:27;102317.34;;;0.81;100.00
23679;BME280;12016;51.668;6.874;2022-12-18T13:37:43;102307.53;;;0.75;100.00
23679;BME280;12016;51.668;6.874;2022-12-18T13:43:50;102285.72;;;0.75;100.00
23679;BME280;12016;51.668;6.874;2022-12-18T13:49:53;102276.47;;;0.76;100.00
23679;BME280;12016;51.668;6.874;2022-12-18T13:55:54;102256.28;;;0.77;100.00
23679;BME280;12016;51.668;6.874;2022-12-18T14:01:59;102253.56;;;0.77;100.00
23679;BME280;12016;51.668;6.874;2022-12-18T14:08:05;102243.22;;;0.74;100.00
23679;BME280;12016;51.668;6.874;2022-12-18T14:14:07;102247.03;;;0.73;100.00
23679;BME280;12016;51.668;6.874;2022-12-18T14:20:14;102225.75;;;0.75;100.00
23679;BME280;12016;51.668;6.874;2022-12-18T14:26:25;102227.41;;;0.76;100.00
23679;BME280;12016;51.668;6.874;2022-12-18T14:32:30;102220.31;;;0.75;100.00
23679;BME280;12016;51.668;6.874;2022-12-18T14:38:33;102217.31;;;0.77;100.00
23679;BME280;12016;51.668;6.874;2022-12-18T14:44:35;102209.94;;;0.77;100.00
23679;BME280;12016;51.668;6.874;2022-12-18T14:57:25;102208.34;;;0.71;100.00
23679;BME280;12016;51.668;6.874;2022-12-18T15:03:29;102189.56;;;0.70;100.00
23679;BME280;12016;51.668;6.874;2022-12-18T15:09:31;102201.81;;;0.67;100.00
23679;BME280;12016;51.668;6.874;2022-12-18T15:21:42;102183.03;;;0.66;100.00
23679;BME280;12016;51.668;6.874;2022-12-18T15:27:46;102175.69;;;0.61;100.00
23679;BME280;12016;51.668;6.874;2022-12-18T15:39:55;102174.06;;;0.60;100.00
23679;BME280;12016;51.668;6.874;2022-12-18T15:45:57;102155.22;;;0.64;100.00
23679;BME280;12016;51.668;6.874;2022-12-18T15:51:59;102154.16;;;0.60;100.00
23679;BME280;12016;51.668;6.874;2022-12-18T15:58:04;102156.63;;;0.61;100.00
23679;BME280;12016;51.668;6.874;2022-12-18T16:04:06;102147.63;;;0.61;100.00
23679;BME280;12016;51.668;6.874;2022-12-18T16:10:08;102158.00;;;0.59;100.00
23679;BME280;12016;51.668;6.874;2022-12-18T16:16:10;102166.19;;;0.59;100.00
23679;BME280;12016;51.668;6.874;2022-12-18T16:22:21;102162.66;;;0.48;100.00
23679;BME280;12016;51.668;6.874;2022-12-18T16:28:24;102170.28;;;0.51;100.00
23679;BME280;12016;51.668;6.874;2022-12-18T16:34:30;102166.72;;;0.51;100.00
23679;BME280;12016;51.668;6.874;2022-12-18T16:40:37;102151.75;;;0.53;100.00
23679;BME280;12016;51.668;6.874;2022-12-18T16:46:59;102140.81;;;0.58;100.00
23679;BME280;12016;51.668;6.874;2022-12-18T16:53:03;102153.34;;;0.59;100.00
23679;BME280;12016;51.668;6.874;2022-12-18T16:59:05;102146.81;;;0.60;100.00
23679;BME280;12016;51.668;6.874;2022-12-18T17:05:06;102118.03;;;0.93;100.00
23679;BME280;12016;51.668;6.874;2022-12-18T17:11:08;102108.09;;;1.40;100.00
23679;BME280;12016;51.668;6.874;2022-12-18T17:17:10;102100.09;;;1.54;100.00
23679;BME280;12016;51.668;6.874;2022-12-18T17:23:28;102092.34;;;1.66;100.00
23679;BME280;12016;51.668;6.874;2022-12-18T17:29:30;102080.50;;;1.76;100.00
23679;BME280;12016;51.668;6.874;2022-12-18T17:35:32;102082.94;;;1.77;100.00
23679;BME280;12016;51.668;6.874;2022-12-18T17:41:33;102085.56;;;1.87;100.00
23679;BME280;12016;51.668;6.874;2022-12-18T17:47:36;102088.53;;;1.91;100.00
23679;BME280;12016;51.668;6.874;2022-12-18T17:53:38;102088.50;;;1.96;100.00
23679;BME280;12016;51.668;6.874;2022-12-18T17:59:39;102098.25;;;2.02;100.00
23679;BME280;12016;51.668;6.874;2022-12-18T18:05:41;102090.34;;;2.00;100.00
23679;BME280;12016;51.668;6.874;2022-12-18T18:11:44;102087.50;;;2.10;100.00
23679;BME280;12016;51.668;6.874;2022-12-18T18:18:04;102092.19;;;2.05;100.00
23679;BME280;12016;51.668;6.874;2022-12-18T18:24:07;102085.56;;;2.11;100.00
23679;BME280;12016;51.668;6.874;2022-12-18T18:30:10;102097.78;;;2.18;100.00
23679;BME280;12016;51.668;6.874;2022-12-18T18:36:12;102109.91;;;2.07;100.00
23679;BME280;12016;51.668;6.874;2022-12-18T18:42:13;102112.28;;;2.14;100.00
23679;BME280;12016;51.668;6.874;2022-12-18T18:48:15;102096.78;;;2.09;100.00
23679;BME280;12016;51.668;6.874;2022-12-18T18:54:17;102107.47;;;2.06;100.00
23679;BME280;12016;51.668;6.874;2022-12-18T19:00:19;102108.81;;;2.08;100.00
23679;BME280;12016;51.668;6.874;2022-12-18T19:06:23;102114.81;;;2.10;100.00
23679;BME280;12016;51.668;6.874;2022-12-18T19:12:26;102119.16;;;2.11;100.00
23679;BME280;12016;51.668;6.874;2022-12-18T19:18:47;102101.44;;;2.09;100.00
23679;BME280;12016;51.668;6.874;2022-12-18T19:24:51;102092.44;;;2.08;100.00
23679;BME280;12016;51.668;6.874;2022-12-18T19:30:58;102094.59;;;2.11;100.00
23679;BME280;12016;51.668;6.874;2022-12-18T19:37:00;102071.06;;;2.15;100.00
23679;BME280;12016;51.668;6.874;2022-12-18T19:43:01;102056.88;;;2.13;100.00
23679;BME280;12016;51.668;6.874;2022-12-18T19:49:04;102060.94;;;2.16;100.00
23679;BME280;12016;51.668;6.874;2022-12-18T19:55:06;102072.91;;;2.20;100.00
23679;BME280;12016;51.668;6.874;2022-12-18T20:01:11;102066.38;;;2.16;100.00
23679;BME280;12016;51.668;6.874;2022-12-18T20:07:14;102066.34;;;2.21;100.00
23679;BME280;12016;51.668;6.874;2022-12-18T20:13:16;102070.72;;;2.22;100.00
23679;BME280;12016;51.668;6.874;2022-12-18T20:19:18;102079.41;;;2.24;100.00
23679;BME280;12016;51.668;6.874;2022-12-18T20:25:20;102064.06;;;2.28;100.00
23679;BME280;12016;51.668;6.874;2022-12-18T20:31:22;102065.09;;;2.32;100.00
23679;BME280;12016;51.668;6.874;2022-12-18T20:37:24;102066.22;;;2.31;100.00
23679;BME280;12016;51.668;6.874;2022-12-18T20:43:27;102076.47;;;2.39;100.00
23679;BME280;12016;51.668;6.874;2022-12-18T20:49:29;102079.16;;;2.44;100.00
23679;BME280;12016;51.668;6.874;2022-12-18T20:55:31;102080.63;;;2.55;100.00
23679;BME280;12016;51.668;6.874;2022-12-18T21:01:33;102086.47;;;2.48;100.00
23679;BME280;12016;51.668;6.874;2022-12-18T21:07:35;102087.53;;;2.52;100.00
23679;BME280;12016;51.668;6.874;2022-12-18T21:13:37;102077.53;;;2.43;100.00
23679;BME280;12016;51.668;6.874;2022-12-18T21:19:39;102074.66;;;2.53;100.00
23679;BME280;12016;51.668;6.874;2022-12-18T21:25:41;102074.56;;;2.58;100.00
23679;BME280;12016;51.668;6.874;2022-12-18T21:31:51;102078.44;;;2.57;100.00
23679;BME280;12016;51.668;6.874;2022-12-18T21:37:54;102075.53;;;2.48;100.00
23679;BME280;12016;51.668;6.874;2022-12-18T21:43:56;102079.38;;;2.47;100.00
23679;BME280;12016;51.668;6.874;2022-12-18T21:50:06;102062.69;;;2.49;100.00
23679;BME280;12016;51.668;6.874;2022-12-18T21:56:08;102063.81;;;2.48;100.00
23679;BME280;12016;51.668;6.874;2022-12-18T22:08:12;102042.44;;;2.50;100.00
23679;BME280;12016;51.668;6.874;2022-12-18T22:14:18;102021.34;;;2.55;100.00
23679;BME280;12016;51.668;6.874;2022-12-18T22:20:20;102025.19;;;2.54;100.00
23679;BME280;12016;51.668;6.874;2022-12-18T22:26:23;102014.75;;;2.56;100.00
23679;BME280;12016;51.668;6.874;2022-12-18T22:32:25;102004.63;;;2.57;100.00
23679;BME280;12016;51.668;6.874;2022-12-18T22:38:28;102004.09;;;2.55;100.00
23679;BME280;12016;51.668;6.874;2022-12-18T22:44:29;102002.94;;;2.61;100.00
23679;BME280;12016;51.668;6.874;2022-12-18T22:50:31;101989.16;;;2.66;100.00
23679;BME280;12016;51.668;6.874;2022-12-18T22:56:34;101987.19;;;2.71;100.00
23679;BME280;12016;51.668;6.874;2022-12-18T23:02:36;101982.53;;;2.72;100.00
23679;BME280;12016;51.668;6.874;2022-12-18T23:08:39;101974.84;;;2.74;100.00
23679;BME280;12016;51.668;6.874;2022-12-18T23:14:41;101965.53;;;2.75;100.00
23679;BME280;12016;51.668;6.874;2022-12-18T23:20:43;101940.63;;;2.76;100.00
23679;BME280;12016;51.668;6.874;2022-12-18T23:26:46;101940.25;;;2.83;100.00
23679;BME280;12016;51.668;6.874;2022-12-18T23:32:48;101929.81;;;2.85;100.00
23679;BME280;12016;51.668;6.874;2022-12-18T23:38:55;101919.09;;;2.89;100.00
23679;BME280;12016;51.668;6.874;2022-12-18T23:44:57;101908.47;;;2.87;100.00
23679;BME280;12016;51.668;6.874;2022-12-18T23:51:06;101915.75;;;2.92;100.00
23679;BME280;12016;51.668;6.874;2022-12-18T23:57:08;101897.81;;;2.86;100.00
